Pagrindinis puslapis
METAR-TAF:

METAR-TAF

Oro uostai :

Magdalenos salos, Kvebekas, Kanada

platuma: 47-25N, ilguma: 061-47W, Aukštis: 10 m

Dabartinis oras

Ataskaita buvo paskelbta 18 minutes, ne 02:26 UTC
Vėjas 12 kt iš Šiaurės Rytų
Temperatūra 6°C
Drėgmė 100%
Slėgis 996 hPa
Matomumas: 4.8 km
Apsiniaukę ne aukštis 400 ft
lietus, rūkana

METAR: CYGR 300226Z 04012KT 3SM -RA BR OVC004 06/06 A2940 RMK SF8 SLP959

Laikas: 21:44 (02:44 UTC)

Prognozė

Ataskaita buvo paskelbta 30 minutes, ne 02:14 UTC
Prognozė galioja nuo 30 metu 02 UTC su 30 metu 03 UTC
Vėjas 15 kt iš Šiaurės Rytų
Matomumas: 9.7 km
Apsiniaukę ne aukštis 1000 ft
lietus, rūkana
Laikinai
nuo 30 metu 02 UTC su 30 metu 03 UTC
Matomumas: 3.2 km
Apsiniaukę ne aukštis 500 ft
lietus, rūkana

TAF: CYGR 300214Z 3002/3003 05015KT 6SM -RA BR OVC010 TEMPO 3002/3003 2SM -RA BR OVC005 RMK NXT FCST WILL BE ISSUED AT 301145Z

Orai ataskaitas ir orų prognozės (METAR, TAF).

turimą stotys yra geltonos ir raudonos taškus žemėlapyje.

Perkelti pele per norėdami pamatyti stoties vardą.

Tada spustelėkite, norėdami matyti oro stebėjimo ir prognozės.

Norėdami pakeisti žemėlapį: spustelėkite ant žalios mygtukų su juodo kryžiaus žemyn,; žalią mygtuką su brūkšneliu, jei norite nutolinti; arba žalių rodyklių gretimoms žemėlapius.


METAR-TAF: